Portada
METAR-TAF:

METAR-TAF

Aeroports :

San Andrés, Colòmbia

latitud: 12-35N, longitud: 081-43W, altitud: 1 m

Observació

L'informe es va fer fa 1 hora i 36 minuts, a les 17:00 UTC
Vent 12 kt del Est
Temperatura 30°C
Humitat 66%
Pressió 1012 hPa
Visibilitat 10 km o més
Núvols disperses a una alçada de 1800 ft

METAR: SKSP 091700Z 08012KT 9999 SCT018 30/23 Q1012 RMK A2991

Hora: 13:36 (18:36 UTC)

Pronòstic

L'informe es va fer fa 2 hores i 6 minuts, a les 16:30 UTC
Pronòstic vàlid del 09 a les 18 UTC al 10 a les 18 UTC
Vent 12 kt del Est/Nord-Est
Visibilitat 10 km o més
Núvols disperses a una alçada de 1700 ft

TAF: SKSP 091630Z 0918/1018 06012KT 9999 SCT017 TX30/0918Z TN26/1010Z

Observacions i pronòstics meteorològics de més de 4000 aeroports (METAR i TAF).

Les estacions disponibles són els punts grocs i vermells al mapa.

Posi el ratolí al punt desitjat per veure el nom de l'estació.

Feu clic per veure les observacions i els pronòstics meteorològics.

Per canviar el mapa: feu clic els botons verds amb una creu de color negre per apropar; al botó verd amb un guió per allunyar la imatge; o en les fletxes verdes per a mapes adjacents.


METAR-TAF: